createdAt,value
2018-12-26T00:00:38.453Z,51.63
2018-12-26T00:03:08.824Z,51.44
2018-12-26T00:05:38.961Z,50.79
2018-12-26T00:08:08.434Z,51.21
2018-12-26T00:10:38.419Z,50.60
2018-12-26T00:13:09.781Z,50.13
2018-12-26T00:15:39.537Z,50.75
2018-12-26T00:18:09.988Z,50.17
2018-12-26T00:20:39.633Z,51.32
2018-12-26T00:23:09.209Z,51.98
2018-12-26T00:25:40.157Z,52.26
2018-12-26T00:28:09.458Z,51.75
2018-12-26T00:30:38.709Z,52.16
2018-12-26T00:33:08.670Z,52.10
2018-12-26T00:35:38.727Z,51.90
2018-12-26T00:38:08.862Z,52.06
2018-12-26T00:40:38.852Z,51.86
2018-12-26T00:43:08.210Z,51.52
2018-12-26T00:45:37.325Z,51.59
2018-12-26T00:48:07.919Z,52.12
2018-12-26T00:50:37.409Z,51.47
2018-12-26T00:53:07.110Z,51.74
2018-12-26T00:55:37.139Z,52.08
2018-12-26T00:58:06.877Z,52.51
2018-12-26T01:00:36.424Z,52.92
2018-12-26T01:03:06.157Z,53.76
2018-12-26T01:05:35.802Z,54.01
2018-12-26T01:08:05.139Z,54.42
2018-12-26T01:10:35.322Z,54.48
2018-12-26T01:13:05.002Z,54.40
2018-12-26T01:15:35.549Z,54.44
2018-12-26T01:18:06.714Z,54.56
2018-12-26T01:20:36.088Z,54.35
2018-12-26T01:23:05.605Z,55.13
2018-12-26T01:25:35.657Z,55.09
2018-12-26T01:28:05.610Z,54.13
2018-12-26T01:30:35.056Z,54.66
2018-12-26T01:33:06.860Z,53.24
2018-12-26T01:35:36.159Z,53.50
2018-12-26T01:38:06.748Z,54.30
2018-12-26T01:40:36.684Z,54.07
2018-12-26T01:43:06.224Z,54.26
2018-12-26T01:45:35.868Z,54.24
2018-12-26T01:48:05.943Z,53.80
2018-12-26T01:50:35.640Z,53.77
2018-12-26T01:53:05.549Z,54.25
2018-12-26T01:55:36.812Z,54.05
2018-12-26T01:58:14.657Z,53.95
2018-12-26T02:00:44.158Z,53.98
2018-12-26T02:03:14.369Z,53.37
2018-12-26T02:05:43.870Z,53.74
2018-12-26T02:08:13.955Z,52.90
2018-12-26T02:10:44.532Z,52.29
2018-12-26T02:13:14.533Z,52.83
2018-12-26T02:15:45.140Z,52.19
2018-12-26T02:18:15.297Z,53.07
2018-12-26T02:20:45.391Z,52.51
2018-12-26T02:23:15.040Z,52.34
2018-12-26T02:25:45.222Z,52.52
2018-12-26T02:28:14.862Z,52.22
2018-12-26T02:30:44.667Z,51.99
2018-12-26T02:33:16.504Z,51.96
2018-12-26T02:35:45.875Z,52.63
2018-12-26T02:38:17.109Z,52.41
2018-12-26T02:40:46.348Z,52.66
2018-12-26T02:43:16.078Z,53.11
2018-12-26T02:45:46.483Z,52.88
2018-12-26T02:48:16.279Z,52.54
2018-12-26T02:50:51.047Z,53.06
2018-12-26T02:53:20.762Z,53.36
2018-12-26T02:55:50.727Z,53.07
2018-12-26T02:58:20.649Z,53.09
2018-12-26T03:00:50.909Z,53.28
2018-12-26T03:03:21.305Z,52.93
2018-12-26T03:05:50.934Z,52.73
2018-12-26T03:08:20.441Z,52.56
2018-12-26T03:10:50.678Z,53.30
2018-12-26T03:13:20.133Z,52.51
2018-12-26T03:15:49.226Z,52.25
2018-12-26T03:18:19.074Z,51.83
2018-12-26T03:20:48.770Z,51.88
2018-12-26T03:23:18.198Z,52.42
2018-12-26T03:25:48.007Z,52.68
2018-12-26T03:28:18.074Z,52.24
2018-12-26T03:30:49.080Z,51.74
2018-12-26T03:33:19.375Z,51.58
2018-12-26T03:35:49.733Z,51.49
2018-12-26T03:38:20.314Z,50.52
2018-12-26T03:40:50.174Z,50.71
2018-12-26T03:43:20.625Z,52.05
2018-12-26T03:45:50.441Z,51.90
2018-12-26T03:48:20.752Z,51.61
2018-12-26T03:50:52.121Z,51.76
2018-12-26T03:53:24.376Z,52.30
2018-12-26T03:55:54.886Z,52.60
2018-12-26T03:58:24.579Z,52.90
2018-12-26T04:00:54.167Z,52.88
2018-12-26T04:03:23.598Z,53.36
2018-12-26T04:05:53.447Z,54.66
2018-12-26T04:08:27.540Z,54.64
2018-12-26T04:10:57.211Z,53.88
2018-12-26T04:13:26.635Z,53.57
2018-12-26T04:15:57.006Z,53.71
2018-12-26T04:18:26.933Z,53.01
2018-12-26T04:20:57.021Z,52.74
2018-12-26T04:23:26.727Z,52.06
2018-12-26T04:26:00.545Z,52.44
2018-12-26T04:28:30.916Z,52.51
2018-12-26T04:31:01.357Z,52.88
2018-12-26T04:33:30.819Z,53.23
2018-12-26T04:36:00.785Z,52.59
2018-12-26T04:38:30.760Z,53.69
2018-12-26T04:41:01.116Z,53.24
2018-12-26T04:43:31.177Z,53.90
2018-12-26T04:46:00.512Z,53.79
2018-12-26T04:48:30.163Z,53.54
2018-12-26T04:50:59.857Z,53.85
2018-12-26T04:53:31.336Z,53.44
2018-12-26T04:56:00.844Z,54.36
2018-12-26T04:58:30.394Z,55.32
2018-12-26T05:00:59.932Z,56.03
2018-12-26T05:03:30.568Z,56.14
2018-12-26T05:06:00.086Z,56.89
2018-12-26T05:08:29.950Z,55.76
2018-12-26T05:11:00.650Z,56.48
2018-12-26T05:13:30.162Z,56.87
2018-12-26T05:16:00.182Z,57.35
2018-12-26T05:18:32.145Z,56.80
2018-12-26T05:21:02.093Z,56.61
2018-12-26T05:23:31.200Z,56.03
2018-12-26T05:26:01.223Z,55.40
2018-12-26T05:28:31.763Z,54.69
2018-12-26T05:31:02.443Z,55.22
2018-12-26T05:33:33.427Z,55.77
2018-12-26T05:36:03.071Z,54.88
2018-12-26T05:38:32.873Z,56.13
2018-12-26T05:41:02.230Z,56.16
2018-12-26T05:43:31.615Z,55.32
2018-12-26T05:46:01.018Z,54.78
2018-12-26T05:48:30.527Z,55.10
2018-12-26T05:51:00.347Z,55.29
2018-12-26T05:53:30.011Z,56.20
2018-12-26T05:56:00.058Z,56.21
2018-12-26T05:58:30.704Z,56.88
2018-12-26T06:01:00.354Z,57.06
2018-12-26T06:03:29.998Z,56.64
2018-12-26T06:05:59.963Z,56.98
2018-12-26T06:08:29.493Z,56.21
2018-12-26T06:10:59.187Z,56.61
2018-12-26T06:13:29.186Z,55.93
2018-12-26T06:15:58.717Z,56.41
2018-12-26T06:18:29.302Z,55.34
2018-12-26T06:20:59.380Z,55.23
2018-12-26T06:23:29.278Z,54.30
2018-12-26T06:25:59.096Z,54.70
2018-12-26T06:28:29.174Z,55.08
2018-12-26T06:30:58.939Z,55.11
2018-12-26T06:33:29.097Z,55.31
2018-12-26T06:35:58.992Z,54.69
2018-12-26T06:38:28.575Z,55.08
2018-12-26T06:40:58.695Z,54.93
2018-12-26T06:43:29.281Z,54.71
2018-12-26T06:45:58.806Z,54.43
2018-12-26T06:48:28.526Z,54.38
2018-12-26T06:50:58.069Z,53.89
2018-12-26T06:53:28.859Z,53.81
2018-12-26T06:55:58.459Z,53.69
2018-12-26T06:58:28.353Z,53.44
2018-12-26T07:00:58.259Z,53.08
2018-12-26T07:03:28.557Z,53.51
2018-12-26T07:05:58.829Z,53.17
2018-12-26T07:08:28.690Z,52.98
2018-12-26T07:10:58.413Z,52.91
2018-12-26T07:13:28.562Z,52.22
2018-12-26T07:15:58.482Z,52.82
2018-12-26T07:18:27.859Z,51.75
2018-12-26T07:20:57.921Z,51.74
2018-12-26T07:23:28.293Z,51.51
2018-12-26T07:26:00.642Z,51.31
2018-12-26T07:28:32.441Z,51.46
2018-12-26T07:31:02.523Z,52.33
2018-12-26T07:33:32.003Z,50.48
2018-12-26T07:36:02.631Z,49.98
2018-12-26T07:38:32.251Z,49.81
2018-12-26T07:41:01.764Z,49.57
2018-12-26T07:43:33.197Z,49.67
2018-12-26T07:46:03.870Z,49.30
2018-12-26T07:48:33.270Z,48.93
2018-12-26T07:51:02.861Z,49.16
2018-12-26T07:53:33.682Z,49.56
2018-12-26T07:56:03.955Z,49.61
2018-12-26T07:58:34.404Z,50.02
2018-12-26T08:01:05.083Z,49.38
2018-12-26T08:03:35.210Z,48.75
2018-12-26T08:06:05.643Z,47.97
2018-12-26T08:08:35.900Z,48.29
2018-12-26T08:11:07.529Z,47.95
2018-12-26T08:13:38.033Z,48.57
2018-12-26T08:16:08.407Z,47.87
2018-12-26T08:18:38.438Z,47.78
2018-12-26T08:21:07.921Z,47.80
2018-12-26T08:23:38.056Z,47.59
2018-12-26T08:26:08.473Z,47.60
2018-12-26T08:28:41.303Z,47.67
2018-12-26T08:31:10.560Z,46.88
2018-12-26T08:33:39.885Z,47.60
2018-12-26T08:36:09.903Z,47.00
2018-12-26T08:38:39.733Z,47.47
2018-12-26T08:41:09.667Z,46.56
2018-12-26T08:43:40.200Z,46.77
2018-12-26T08:46:10.762Z,46.34
2018-12-26T08:48:40.794Z,47.03
2018-12-26T08:51:10.101Z,45.05
2018-12-26T08:53:40.798Z,45.15
2018-12-26T08:56:10.506Z,45.19
2018-12-26T08:58:41.198Z,45.58
2018-12-26T09:01:11.027Z,44.87
2018-12-26T09:03:40.801Z,45.75
2018-12-26T09:06:10.943Z,46.12
2018-12-26T09:08:42.201Z,46.27
2018-12-26T09:11:12.597Z,45.88
2018-12-26T09:13:43.197Z,46.04
2018-12-26T09:16:13.171Z,46.60
2018-12-26T09:18:42.803Z,45.86
2018-12-26T09:21:13.527Z,46.35
2018-12-26T09:23:47.500Z,46.55
2018-12-26T09:26:16.835Z,46.09
2018-12-26T09:28:47.139Z,46.95
2018-12-26T09:31:17.779Z,46.92
2018-12-26T09:33:47.548Z,46.84
2018-12-26T09:36:17.102Z,46.65
2018-12-26T09:38:47.432Z,48.44
2018-12-26T09:41:18.000Z,49.84
2018-12-26T09:43:48.591Z,52.71
2018-12-26T09:46:18.484Z,55.04
2018-12-26T09:48:47.889Z,52.40
2018-12-26T09:51:17.250Z,49.29
2018-12-26T09:53:47.321Z,53.36
2018-12-26T09:56:16.807Z,52.25
2018-12-26T09:58:52.453Z,45.57
2018-12-26T10:01:18.031Z,47.34
2018-12-26T10:03:49.083Z,50.46
2018-12-26T10:06:18.865Z,46.85
2018-12-26T10:08:51.226Z,48.89
2018-12-26T10:11:20.437Z,48.20
2018-12-26T10:13:50.918Z,50.87
2018-12-26T10:16:20.918Z,47.88
2018-12-26T10:18:52.701Z,49.80
2018-12-26T10:21:22.794Z,44.05
2018-12-26T10:23:52.076Z,43.16
2018-12-26T10:26:22.482Z,43.57
2018-12-26T10:29:00.803Z,44.53
2018-12-26T10:31:23.119Z,43.90
2018-12-26T10:33:54.250Z,43.34
2018-12-26T10:36:24.220Z,44.75
2018-12-26T10:38:54.035Z,43.87
2018-12-26T10:41:23.366Z,44.16
2018-12-26T10:43:55.769Z,42.98
2018-12-26T10:46:26.006Z,43.97
2018-12-26T10:48:56.379Z,43.96
2018-12-26T10:51:25.855Z,44.28
2018-12-26T10:53:56.822Z,43.33
2018-12-26T10:56:27.653Z,43.63
2018-12-26T10:58:59.970Z,43.26
2018-12-26T11:01:29.151Z,44.11
2018-12-26T11:03:59.393Z,43.55
2018-12-26T11:06:29.141Z,43.97
2018-12-26T11:08:58.571Z,44.45
2018-12-26T11:11:29.421Z,45.47
2018-12-26T11:14:02.764Z,44.56
2018-12-26T11:16:32.353Z,45.82
2018-12-26T11:19:02.103Z,46.96
2018-12-26T11:21:32.819Z,46.71
2018-12-26T11:24:04.857Z,46.87
2018-12-26T11:26:34.845Z,46.68
2018-12-26T11:29:06.527Z,46.62
2018-12-26T11:31:37.301Z,45.83
2018-12-26T11:34:07.764Z,45.27
2018-12-26T11:36:37.786Z,46.13
2018-12-26T11:39:08.288Z,46.94
2018-12-26T11:41:38.319Z,47.28
2018-12-26T11:44:10.021Z,46.54
2018-12-26T11:46:40.258Z,45.93
2018-12-26T11:49:11.360Z,45.15
2018-12-26T11:51:40.988Z,45.90
2018-12-26T11:54:10.278Z,46.90
2018-12-26T11:56:40.179Z,47.61
2018-12-26T11:59:12.259Z,47.46
2018-12-26T12:01:42.173Z,47.98
2018-12-26T12:04:13.111Z,46.47
2018-12-26T12:06:43.171Z,47.73
2018-12-26T12:09:12.731Z,47.20
2018-12-26T12:11:43.085Z,47.62
2018-12-26T12:14:13.246Z,47.82
2018-12-26T12:16:42.637Z,48.26
2018-12-26T12:19:12.288Z,47.83
2018-12-26T12:21:42.439Z,47.33
2018-12-26T12:24:11.819Z,48.07
2018-12-26T12:26:42.130Z,63.57
2018-12-26T12:29:12.333Z,47.18
2018-12-26T12:31:42.192Z,48.12
2018-12-26T12:34:12.275Z,48.62
2018-12-26T12:36:42.961Z,48.25
2018-12-26T12:39:12.811Z,48.50
2018-12-26T12:41:42.526Z,48.92
2018-12-26T12:44:15.515Z,49.01
2018-12-26T12:46:46.330Z,49.00
2018-12-26T12:49:15.885Z,49.55
2018-12-26T12:51:45.850Z,48.77
2018-12-26T12:54:15.820Z,49.90
2018-12-26T12:56:46.150Z,49.76
2018-12-26T12:59:15.693Z,49.75
2018-12-26T13:01:45.286Z,49.80
2018-12-26T13:04:15.245Z,50.13
2018-12-26T13:06:45.259Z,49.76
2018-12-26T13:09:16.335Z,49.49
2018-12-26T13:11:46.620Z,49.61
2018-12-26T13:14:17.621Z,50.53
2018-12-26T13:16:47.895Z,50.84
2018-12-26T13:19:18.959Z,50.58
2018-12-26T13:21:48.271Z,50.93
2018-12-26T13:24:17.970Z,51.64
2018-12-26T13:26:47.642Z,51.21
2018-12-26T13:29:17.435Z,50.97
2018-12-26T13:31:46.845Z,51.46
2018-12-26T13:34:16.594Z,50.19
2018-12-26T13:36:46.357Z,51.76
2018-12-26T13:39:16.379Z,52.17
2018-12-26T13:41:46.381Z,52.10
2018-12-26T13:44:17.338Z,51.74
2018-12-26T13:46:49.835Z,51.63
2018-12-26T13:49:17.215Z,64.68
2018-12-26T13:51:50.648Z,52.10
2018-12-26T13:54:20.749Z,52.38
2018-12-26T13:56:50.747Z,52.18
2018-12-26T13:59:21.005Z,52.05
2018-12-26T14:01:50.608Z,52.55
2018-12-26T14:04:20.425Z,52.43
2018-12-26T14:06:50.151Z,53.03
2018-12-26T14:09:25.134Z,52.71
2018-12-26T14:11:55.703Z,52.78
2018-12-26T14:14:25.498Z,52.68
2018-12-26T14:16:55.760Z,51.61
2018-12-26T14:19:25.647Z,52.83
2018-12-26T14:21:55.394Z,53.37
2018-12-26T14:24:26.317Z,53.69
2018-12-26T14:26:54.895Z,53.93
2018-12-26T14:29:24.826Z,53.21
2018-12-26T14:31:55.516Z,53.84
2018-12-26T14:34:24.907Z,52.38
2018-12-26T14:36:54.827Z,52.86
2018-12-26T14:39:24.702Z,53.35
2018-12-26T14:41:54.721Z,52.93
2018-12-26T14:44:24.323Z,53.27
2018-12-26T14:46:53.766Z,52.03
2018-12-26T14:49:23.090Z,52.46
2018-12-26T14:51:53.620Z,52.45
2018-12-26T14:54:23.806Z,52.13
2018-12-26T14:56:53.392Z,53.80
2018-12-26T14:59:23.035Z,53.94
2018-12-26T15:01:52.726Z,53.38
2018-12-26T15:04:22.556Z,53.73
2018-12-26T15:06:52.672Z,53.98
2018-12-26T15:09:23.759Z,54.37
2018-12-26T15:11:52.959Z,55.21
2018-12-26T15:14:22.482Z,52.93
2018-12-26T15:16:52.277Z,53.97
2018-12-26T15:19:22.010Z,54.38
2018-12-26T15:21:52.824Z,54.56
2018-12-26T15:24:22.163Z,53.13
2018-12-26T15:26:51.942Z,53.20
2018-12-26T15:29:21.956Z,90.23
2018-12-26T15:31:51.723Z,53.36
2018-12-26T15:34:22.638Z,53.24
2018-12-26T15:36:51.970Z,54.13
2018-12-26T15:39:22.031Z,55.06
2018-12-26T15:41:52.848Z,55.16
2018-12-26T15:44:22.939Z,55.15
2018-12-26T15:46:52.675Z,55.05
2018-12-26T15:49:22.455Z,54.59
2018-12-26T15:51:51.791Z,55.38
2018-12-26T15:54:21.247Z,55.31
2018-12-26T15:56:51.020Z,55.50
2018-12-26T15:59:20.882Z,55.30
2018-12-26T16:01:50.544Z,54.58
2018-12-26T16:04:21.351Z,54.52
2018-12-26T16:06:51.050Z,55.21
2018-12-26T16:09:20.591Z,55.82
2018-12-26T16:11:51.818Z,56.26
2018-12-26T16:14:21.523Z,55.93
2018-12-26T16:16:51.329Z,56.57
2018-12-26T16:19:20.720Z,58.53
2018-12-26T16:21:50.718Z,58.90
2018-12-26T16:24:20.699Z,58.71
2018-12-26T16:26:50.044Z,58.79
2018-12-26T16:29:19.678Z,58.66
2018-12-26T16:31:49.555Z,59.83
2018-12-26T16:34:19.275Z,59.97
2018-12-26T16:36:49.340Z,62.23
2018-12-26T16:39:18.822Z,63.42
2018-12-26T16:41:48.960Z,63.74
2018-12-26T16:44:20.388Z,63.89
2018-12-26T16:46:49.911Z,64.08
2018-12-26T16:49:21.413Z,64.38
2018-12-26T16:51:49.787Z,64.24
2018-12-26T16:54:20.035Z,64.25
2018-12-26T16:56:49.830Z,63.70
2018-12-26T16:59:19.445Z,62.84
2018-12-26T17:01:49.123Z,63.73
2018-12-26T17:04:18.778Z,62.71
2018-12-26T17:06:49.020Z,62.60
2018-12-26T17:09:18.767Z,62.04
2018-12-26T17:11:50.462Z,61.79
2018-12-26T17:14:21.639Z,61.04
2018-12-26T17:16:52.106Z,60.78
2018-12-26T17:19:22.617Z,59.57
2018-12-26T17:21:52.018Z,60.75
2018-12-26T17:24:22.275Z,60.37
2018-12-26T17:26:51.680Z,59.15
2018-12-26T17:29:21.228Z,58.56
2018-12-26T17:31:51.159Z,56.86
2018-12-26T17:34:20.988Z,56.96
2018-12-26T17:36:50.584Z,57.50
2018-12-26T17:39:22.642Z,58.58
2018-12-26T17:41:52.022Z,58.81
2018-12-26T17:44:22.099Z,59.31
2018-12-26T17:46:51.661Z,61.58
2018-12-26T17:49:21.738Z,62.23
2018-12-26T17:51:52.640Z,62.11
2018-12-26T17:54:29.595Z,62.13
2018-12-26T17:57:05.685Z,61.25
2018-12-26T17:59:59.071Z,60.77
2018-12-26T18:02:33.811Z,60.29
2018-12-26T18:05:03.274Z,61.85
2018-12-26T18:07:32.734Z,61.37
2018-12-26T18:10:02.951Z,63.00
2018-12-26T18:12:32.726Z,63.25
2018-12-26T18:15:02.340Z,62.69
2018-12-26T18:17:34.243Z,62.55
2018-12-26T18:20:03.764Z,63.94
2018-12-26T18:22:33.488Z,64.62
2018-12-26T18:25:04.341Z,65.70
2018-12-26T18:27:34.118Z,66.56
2018-12-26T18:30:05.270Z,65.96
2018-12-26T18:32:35.330Z,67.59
2018-12-26T18:35:05.068Z,65.85
2018-12-26T18:37:34.422Z,64.94
2018-12-26T18:40:04.062Z,64.43
2018-12-26T18:42:34.291Z,65.40
2018-12-26T18:45:05.986Z,65.87
2018-12-26T18:47:40.163Z,65.67
2018-12-26T18:50:14.365Z,65.83
2018-12-26T18:52:52.377Z,65.43
2018-12-26T18:55:23.632Z,64.21
2018-12-26T18:57:55.415Z,65.00
2018-12-26T19:00:26.114Z,66.24
2018-12-26T19:02:58.434Z,66.10
2018-12-26T19:05:28.114Z,65.51
2018-12-26T19:07:59.707Z,65.28
2018-12-26T19:10:29.384Z,66.21
2018-12-26T19:12:59.580Z,66.87
2018-12-26T19:15:31.575Z,66.40
2018-12-26T19:18:00.970Z,66.54
2018-12-26T19:20:30.802Z,65.01
2018-12-26T19:23:01.031Z,65.18
2018-12-26T19:25:30.749Z,64.81
2018-12-26T19:28:00.376Z,65.27
2018-12-26T19:30:30.041Z,65.04
2018-12-26T19:32:59.747Z,64.70
2018-12-26T19:35:29.842Z,63.80
2018-12-26T19:37:59.103Z,63.26
2018-12-26T19:40:28.754Z,62.16
2018-12-26T19:42:58.414Z,61.61
2018-12-26T19:45:29.774Z,61.74
2018-12-26T19:47:59.673Z,61.76
2018-12-26T19:50:28.994Z,61.99
2018-12-26T19:52:58.658Z,61.71
2018-12-26T19:55:29.939Z,61.64
2018-12-26T19:58:00.631Z,61.60
2018-12-26T20:00:31.234Z,61.96
2018-12-26T20:03:00.978Z,60.92
2018-12-26T20:05:32.219Z,61.79
2018-12-26T20:08:02.459Z,61.35
2018-12-26T20:10:32.345Z,62.86
2018-12-26T20:13:01.615Z,63.17
2018-12-26T20:15:31.507Z,62.52
2018-12-26T20:18:02.231Z,62.99
2018-12-26T20:20:34.429Z,63.16
2018-12-26T20:23:04.395Z,63.01
2018-12-26T20:25:34.945Z,63.16
2018-12-26T20:28:05.953Z,64.65
2018-12-26T20:30:37.838Z,62.85
2018-12-26T20:33:08.156Z,62.79
2018-12-26T20:35:38.603Z,63.56
2018-12-26T20:38:09.312Z,63.09
2018-12-26T20:40:39.210Z,64.02
2018-12-26T20:43:09.499Z,63.63
2018-12-26T20:45:40.629Z,63.81
2018-12-26T20:48:13.475Z,64.02
2018-12-26T20:50:44.145Z,64.11
2018-12-26T20:53:14.211Z,62.98
2018-12-26T20:55:48.100Z,61.79
2018-12-26T20:58:18.190Z,63.59
2018-12-26T21:00:49.094Z,64.11
2018-12-26T21:03:18.774Z,65.19
2018-12-26T21:05:48.805Z,65.50
2018-12-26T21:08:18.583Z,65.00
2018-12-26T21:10:47.904Z,64.92
2018-12-26T21:13:17.809Z,65.53
2018-12-26T21:15:47.690Z,66.03
2018-12-26T21:18:17.012Z,65.42
2018-12-26T21:20:46.451Z,64.11
2018-12-26T21:23:16.237Z,63.56
2018-12-26T21:25:46.834Z,64.43
2018-12-26T21:28:16.616Z,63.37
2018-12-26T21:30:45.871Z,63.44
2018-12-26T21:33:16.250Z,63.83
2018-12-26T21:35:45.762Z,63.61
2018-12-26T21:38:15.480Z,62.54
2018-12-26T21:40:45.755Z,62.96
2018-12-26T21:43:15.236Z,63.58
2018-12-26T21:45:45.954Z,63.11
2018-12-26T21:48:15.751Z,62.99
2018-12-26T21:50:46.879Z,63.48
2018-12-26T21:53:18.084Z,64.31
2018-12-26T21:55:48.361Z,64.34
2018-12-26T21:58:18.721Z,65.33
2018-12-26T22:00:47.955Z,65.70
2018-12-26T22:03:17.415Z,65.65
2018-12-26T22:05:46.905Z,65.65
2018-12-26T22:08:16.743Z,65.08
2018-12-26T22:10:47.661Z,65.59
2018-12-26T22:13:18.473Z,65.68
2018-12-26T22:15:47.093Z,66.30
2018-12-26T22:18:16.802Z,64.51
2018-12-26T22:20:47.138Z,65.34
2018-12-26T22:23:17.445Z,65.08
2018-12-26T22:25:47.105Z,64.58
2018-12-26T22:28:17.073Z,66.94
2018-12-26T22:30:46.703Z,66.97
2018-12-26T22:33:16.115Z,66.53
2018-12-26T22:35:46.395Z,65.67
2018-12-26T22:38:17.006Z,66.35
2018-12-26T22:40:46.907Z,67.52
2018-12-26T22:43:17.321Z,66.65
2018-12-26T22:45:46.525Z,66.09
2018-12-26T22:48:17.374Z,66.80
2018-12-26T22:50:47.787Z,65.84
2018-12-26T22:53:17.494Z,64.79
2018-12-26T22:55:48.768Z,65.54
2018-12-26T22:58:18.752Z,66.02
2018-12-26T23:00:48.247Z,63.66
2018-12-26T23:03:17.966Z,62.35
2018-12-26T23:05:47.486Z,62.84
2018-12-26T23:08:16.641Z,63.57
2018-12-26T23:10:45.946Z,62.43
2018-12-26T23:13:15.872Z,62.23
2018-12-26T23:15:45.550Z,63.12
2018-12-26T23:18:15.681Z,62.60
2018-12-26T23:20:49.054Z,62.08
2018-12-26T23:23:18.588Z,61.09
2018-12-26T23:25:48.317Z,61.53
2018-12-26T23:28:19.003Z,61.39
2018-12-26T23:30:48.649Z,61.69
2018-12-26T23:33:18.565Z,60.59
2018-12-26T23:35:49.380Z,61.32
2018-12-26T23:38:19.186Z,61.19
2018-12-26T23:40:48.506Z,61.19
2018-12-26T23:43:17.790Z,60.99
2018-12-26T23:45:47.037Z,62.06
2018-12-26T23:48:16.558Z,61.73
2018-12-26T23:50:46.355Z,60.87
2018-12-26T23:53:15.760Z,61.96
2018-12-26T23:55:46.069Z,62.12
2018-12-26T23:58:16.977Z,61.60
